createdAt,value
2018-03-07T00:00:51.077Z,3.80
2018-03-07T00:03:18.616Z,3.80
2018-03-07T00:05:46.122Z,4.00
2018-03-07T00:08:13.723Z,4.00
2018-03-07T00:10:41.242Z,4.00
2018-03-07T00:13:08.782Z,4.10
2018-03-07T00:15:36.452Z,4.10
2018-03-07T00:18:03.952Z,3.90
2018-03-07T00:20:31.514Z,4.00
2018-03-07T00:22:59.075Z,4.00
2018-03-07T00:25:26.705Z,4.10
2018-03-07T00:27:54.309Z,4.10
2018-03-07T00:30:21.832Z,4.20
2018-03-07T00:32:49.429Z,4.10
2018-03-07T00:35:16.977Z,4.20
2018-03-07T00:37:44.480Z,4.10
2018-03-07T00:40:12.008Z,4.20
2018-03-07T00:42:39.588Z,4.10
2018-03-07T00:45:07.935Z,4.20
2018-03-07T00:47:36.221Z,4.10
2018-03-07T00:50:04.526Z,4.10
2018-03-07T00:52:32.055Z,4.10
2018-03-07T00:54:59.684Z,4.10
2018-03-07T00:57:27.233Z,4.10
2018-03-07T00:59:54.764Z,4.20
2018-03-07T01:02:22.297Z,4.20
2018-03-07T01:04:49.816Z,4.20
2018-03-07T01:07:17.341Z,4.30
2018-03-07T01:09:44.856Z,4.20
2018-03-07T01:12:12.716Z,4.20
2018-03-07T01:14:41.769Z,4.10
2018-03-07T01:17:09.603Z,4.10
2018-03-07T01:19:37.883Z,4.20
2018-03-07T01:22:06.170Z,4.20
2018-03-07T01:24:33.714Z,4.20
2018-03-07T01:27:01.258Z,4.10
2018-03-07T01:29:28.889Z,4.20
2018-03-07T01:31:56.438Z,4.20
2018-03-07T01:34:23.981Z,4.20
2018-03-07T01:36:51.488Z,4.20
2018-03-07T01:39:18.998Z,4.20
2018-03-07T01:41:46.528Z,4.30
2018-03-07T01:44:14.091Z,4.00
2018-03-07T01:46:42.370Z,3.80
2018-03-07T01:49:10.656Z,3.90
2018-03-07T01:51:49.864Z,3.90
2018-03-07T01:54:17.382Z,4.00
2018-03-07T01:56:44.901Z,3.90
2018-03-07T01:59:13.197Z,4.00
2018-03-07T02:01:40.706Z,4.00
2018-03-07T02:04:08.220Z,4.00
2018-03-07T02:06:35.717Z,3.90
2018-03-07T02:09:03.268Z,4.00
2018-03-07T02:11:30.776Z,3.90
2018-03-07T02:13:59.071Z,3.90
2018-03-07T02:16:26.599Z,3.90
2018-03-07T02:18:54.871Z,3.90
2018-03-07T02:21:23.178Z,4.00
2018-03-07T02:23:50.685Z,4.00
2018-03-07T02:26:18.195Z,3.80
2018-03-07T02:28:45.732Z,3.80
2018-03-07T02:31:14.027Z,3.80
2018-03-07T02:33:41.532Z,3.80
2018-03-07T02:39:07.707Z,3.80
2018-03-07T02:41:35.214Z,3.80
2018-03-07T02:44:02.734Z,3.80
2018-03-07T02:46:30.266Z,3.70
2018-03-07T02:48:57.788Z,3.80
2018-03-07T02:51:25.322Z,3.80
2018-03-07T02:53:52.899Z,3.80
2018-03-07T02:56:21.171Z,3.90
2018-03-07T02:58:49.255Z,3.80
2018-03-07T03:01:16.781Z,3.80
2018-03-07T03:03:44.288Z,3.80
2018-03-07T03:06:11.805Z,3.80
2018-03-07T03:08:40.190Z,3.60
2018-03-07T03:11:07.736Z,3.60
2018-03-07T03:13:36.009Z,3.70
2018-03-07T03:16:04.296Z,3.80
2018-03-07T03:18:31.826Z,3.80
2018-03-07T03:20:59.355Z,3.80
2018-03-07T03:23:26.865Z,3.90
2018-03-07T03:25:55.142Z,3.80
2018-03-07T03:28:23.467Z,3.80
2018-03-07T03:30:51.012Z,3.80
2018-03-07T03:33:18.533Z,3.80
2018-03-07T03:35:46.053Z,3.80
2018-03-07T03:38:13.570Z,3.70
2018-03-07T03:40:41.079Z,3.80
2018-03-07T03:43:08.592Z,3.80
2018-03-07T03:45:36.870Z,3.60
2018-03-07T03:48:04.415Z,3.60
2018-03-07T03:50:31.922Z,3.60
2018-03-07T03:52:59.487Z,3.60
2018-03-07T03:55:27.017Z,3.50
2018-03-07T03:57:54.533Z,3.50
2018-03-07T04:00:22.062Z,3.50
2018-03-07T04:02:49.586Z,3.60
2018-03-07T04:05:17.095Z,3.60
2018-03-07T04:07:44.745Z,3.60
2018-03-07T04:10:12.343Z,3.60
2018-03-07T04:12:39.866Z,3.60
2018-03-07T04:15:07.393Z,3.60
2018-03-07T04:17:35.675Z,3.50
2018-03-07T04:20:03.189Z,3.50
2018-03-07T04:22:30.734Z,3.50
2018-03-07T04:24:58.240Z,3.60
2018-03-07T04:27:26.519Z,3.70
2018-03-07T04:29:54.793Z,3.70
2018-03-07T04:32:23.094Z,3.70
2018-03-07T04:34:50.612Z,3.70
2018-03-07T04:37:18.166Z,3.70
2018-03-07T04:39:45.694Z,3.70
2018-03-07T04:42:13.245Z,3.60
2018-03-07T04:44:40.785Z,3.60
2018-03-07T04:47:08.291Z,3.60
2018-03-07T04:49:35.849Z,3.60
2018-03-07T04:52:03.381Z,3.60
2018-03-07T04:54:30.940Z,3.70
2018-03-07T04:56:58.516Z,3.70
2018-03-07T04:59:26.043Z,3.70
2018-03-07T05:01:53.574Z,3.60
2018-03-07T05:04:21.855Z,3.50
2018-03-07T05:06:50.139Z,3.50
2018-03-07T05:09:18.415Z,3.40
2018-03-07T05:11:46.739Z,3.40
2018-03-07T05:14:14.247Z,3.40
2018-03-07T05:16:41.772Z,3.40
2018-03-07T05:19:09.279Z,3.40
2018-03-07T05:21:36.800Z,3.40
2018-03-07T05:24:04.293Z,3.40
2018-03-07T05:26:31.821Z,3.50
2018-03-07T05:28:59.346Z,3.40
2018-03-07T05:31:26.948Z,3.50
2018-03-07T05:33:55.265Z,3.60
2018-03-07T05:36:22.772Z,3.50
2018-03-07T05:38:50.282Z,3.50
2018-03-07T05:41:17.790Z,3.50
2018-03-07T05:43:45.308Z,3.60
2018-03-07T05:46:12.840Z,3.60
2018-03-07T05:48:40.347Z,3.60
2018-03-07T05:51:07.888Z,3.60
2018-03-07T05:53:35.449Z,3.50
2018-03-07T05:56:02.982Z,3.40
2018-03-07T05:58:31.281Z,3.50
2018-03-07T06:00:58.820Z,3.50
2018-03-07T06:03:27.100Z,3.40
2018-03-07T06:05:54.620Z,3.40
2018-03-07T06:08:22.139Z,3.50
2018-03-07T06:10:49.656Z,3.50
2018-03-07T06:13:17.167Z,3.50
2018-03-07T06:15:44.669Z,3.50
2018-03-07T06:18:12.190Z,3.60
2018-03-07T06:20:39.702Z,3.60
2018-03-07T06:23:07.250Z,3.60
2018-03-07T06:25:34.772Z,3.70
2018-03-07T06:28:02.275Z,3.70
2018-03-07T06:30:29.801Z,3.80
2018-03-07T06:32:57.310Z,3.80
2018-03-07T06:35:25.580Z,3.90
2018-03-07T06:37:53.897Z,3.90
2018-03-07T06:40:21.925Z,3.90
2018-03-07T06:42:51.110Z,4.00
2018-03-07T06:45:18.652Z,3.90
2018-03-07T06:47:46.230Z,4.00
2018-03-07T06:50:13.803Z,4.10
2018-03-07T06:52:42.084Z,4.10
2018-03-07T06:55:10.468Z,4.10
2018-03-07T06:57:37.980Z,4.10
2018-03-07T07:00:05.497Z,4.10
2018-03-07T07:02:33.013Z,4.20
2018-03-07T07:05:00.533Z,4.20
2018-03-07T07:07:28.166Z,4.20
2018-03-07T07:09:55.823Z,4.30
2018-03-07T07:12:23.330Z,4.40
2018-03-07T07:14:50.836Z,4.40
2018-03-07T07:17:19.123Z,4.40
2018-03-07T07:19:47.404Z,4.40
2018-03-07T07:22:15.834Z,4.50
2018-03-07T07:24:43.487Z,4.40
2018-03-07T07:27:11.102Z,4.40
2018-03-07T07:29:38.654Z,4.40
2018-03-07T07:32:06.983Z,4.40
2018-03-07T07:34:34.525Z,4.40
2018-03-07T07:37:02.039Z,4.40
2018-03-07T07:39:29.592Z,4.50
2018-03-07T07:41:57.116Z,4.50
2018-03-07T07:44:24.646Z,4.30
2018-03-07T07:46:52.955Z,4.20
2018-03-07T07:49:20.490Z,4.20
2018-03-07T07:51:48.005Z,4.10
2018-03-07T07:54:15.536Z,3.90
2018-03-07T07:56:43.111Z,3.90
2018-03-07T07:59:10.694Z,3.90
2018-03-07T08:01:38.205Z,3.90
2018-03-07T08:04:06.302Z,3.90
2018-03-07T08:06:34.644Z,4.10
2018-03-07T08:09:02.153Z,4.00
2018-03-07T08:11:29.687Z,4.10
2018-03-07T08:13:57.349Z,4.10
2018-03-07T08:16:24.872Z,4.20
2018-03-07T08:18:53.222Z,3.90
2018-03-07T08:21:20.743Z,3.90
2018-03-07T08:23:48.252Z,4.00
2018-03-07T08:26:16.582Z,4.00
2018-03-07T08:28:44.103Z,4.10
2018-03-07T08:31:11.672Z,4.10
2018-03-07T08:33:39.207Z,4.00
2018-03-07T08:36:06.719Z,4.00
2018-03-07T08:38:34.369Z,4.10
2018-03-07T08:41:01.896Z,4.10
2018-03-07T08:43:30.299Z,4.00
2018-03-07T08:45:57.843Z,4.00
2018-03-07T08:48:25.543Z,4.00
2018-03-07T08:50:53.052Z,4.00
2018-03-07T08:53:20.622Z,4.00
2018-03-07T08:55:48.904Z,3.90
2018-03-07T08:58:17.186Z,4.00
2018-03-07T09:00:45.474Z,4.20
2018-03-07T09:03:13.111Z,4.20
2018-03-07T09:05:41.457Z,4.30
2018-03-07T09:08:08.963Z,4.30
2018-03-07T09:10:36.597Z,4.20
2018-03-07T09:13:04.156Z,4.20
2018-03-07T09:15:31.694Z,4.20
2018-03-07T09:17:59.220Z,4.20
2018-03-07T09:20:26.742Z,4.20
2018-03-07T09:22:55.044Z,4.20
2018-03-07T09:25:23.328Z,4.10
2018-03-07T09:27:50.842Z,4.10
2018-03-07T09:30:18.376Z,4.00
2018-03-07T09:32:45.916Z,3.90
2018-03-07T09:35:13.460Z,3.80
2018-03-07T09:37:41.030Z,3.90
2018-03-07T09:40:08.555Z,3.80
2018-03-07T09:42:37.689Z,3.80
2018-03-07T09:45:05.216Z,3.90
2018-03-07T09:47:32.718Z,3.80
2018-03-07T09:50:00.236Z,3.80
2018-03-07T09:52:27.770Z,3.90
2018-03-07T09:54:55.311Z,3.90
2018-03-07T09:57:22.834Z,3.90
2018-03-07T09:59:50.387Z,3.70
2018-03-07T10:02:17.927Z,3.70
2018-03-07T10:04:45.453Z,3.70
2018-03-07T10:07:12.971Z,3.60
2018-03-07T10:09:41.479Z,3.50
2018-03-07T10:12:09.166Z,3.50
2018-03-07T10:14:36.733Z,3.50
2018-03-07T10:17:04.234Z,3.40
2018-03-07T10:19:32.510Z,3.60
2018-03-07T10:22:00.793Z,3.50
2018-03-07T10:24:28.452Z,3.50
2018-03-07T10:26:56.739Z,3.60
2018-03-07T10:29:24.270Z,3.60
2018-03-07T10:31:51.800Z,3.70
2018-03-07T10:34:19.365Z,3.60
2018-03-07T10:36:46.866Z,3.70
2018-03-07T10:39:14.447Z,3.60
2018-03-07T10:41:42.131Z,3.70
2018-03-07T10:44:09.660Z,3.50
2018-03-07T10:46:37.203Z,3.50
2018-03-07T10:49:04.687Z,3.60
2018-03-07T10:51:32.236Z,3.70
2018-03-07T10:53:59.750Z,3.50
2018-03-07T10:56:27.774Z,3.60
2018-03-07T10:58:55.324Z,3.70
2018-03-07T11:01:22.860Z,3.70
2018-03-07T11:03:50.360Z,3.70
2018-03-07T11:06:17.889Z,3.70
2018-03-07T11:08:46.166Z,3.70
2018-03-07T11:11:14.479Z,3.70
2018-03-07T11:13:42.002Z,3.70
2018-03-07T11:16:09.544Z,3.70
2018-03-07T11:18:37.850Z,3.70
2018-03-07T11:21:06.154Z,3.70
2018-03-07T11:23:33.681Z,3.70
2018-03-07T11:26:01.214Z,3.70
2018-03-07T11:28:28.735Z,3.60
2018-03-07T11:30:56.344Z,3.70
2018-03-07T11:33:23.867Z,3.70
2018-03-07T11:35:51.367Z,3.80
2018-03-07T11:38:18.871Z,3.80
2018-03-07T11:40:46.408Z,3.80
2018-03-07T11:43:13.971Z,3.90
2018-03-07T11:45:41.499Z,3.90
2018-03-07T11:48:09.139Z,4.00
2018-03-07T11:50:37.525Z,4.00
2018-03-07T11:53:05.112Z,4.00
2018-03-07T11:55:33.384Z,4.20
2018-03-07T11:58:01.916Z,4.10
2018-03-07T12:00:29.480Z,4.10
2018-03-07T12:02:57.092Z,3.90
2018-03-07T12:05:24.695Z,4.00
2018-03-07T12:07:52.227Z,4.10
2018-03-07T12:10:20.603Z,4.20
2018-03-07T12:12:48.914Z,4.10
2018-03-07T12:15:16.445Z,4.10
2018-03-07T12:17:43.960Z,4.10
2018-03-07T12:20:11.463Z,4.00
2018-03-07T12:22:38.982Z,4.10
2018-03-07T12:25:06.497Z,4.10
2018-03-07T12:27:34.076Z,4.00
2018-03-07T12:30:01.585Z,3.80
2018-03-07T12:32:29.127Z,3.90
2018-03-07T12:34:56.644Z,3.90
2018-03-07T12:37:24.163Z,3.90
2018-03-07T12:39:51.663Z,3.80
2018-03-07T12:42:19.200Z,3.60
2018-03-07T12:44:46.718Z,3.70
2018-03-07T12:47:14.241Z,3.70
2018-03-07T12:49:41.749Z,3.60
2018-03-07T12:52:09.261Z,3.50
2018-03-07T12:54:36.763Z,3.50
2018-03-07T12:57:04.302Z,3.60
2018-03-07T12:59:31.844Z,3.50
2018-03-07T13:01:59.386Z,3.50
2018-03-07T13:04:26.939Z,3.60
2018-03-07T13:06:54.497Z,3.60
2018-03-07T13:09:22.006Z,3.60
2018-03-07T13:11:50.284Z,3.60
2018-03-07T13:14:17.880Z,3.60
2018-03-07T13:16:45.413Z,3.60
2018-03-07T13:19:12.953Z,3.50
2018-03-07T13:21:40.451Z,3.60
2018-03-07T13:24:08.137Z,3.70
2018-03-07T13:26:35.652Z,3.60
2018-03-07T13:29:03.186Z,3.50
2018-03-07T13:31:30.695Z,3.60
2018-03-07T13:33:58.235Z,3.50
2018-03-07T13:36:25.777Z,3.50
2018-03-07T13:38:53.335Z,3.50
2018-03-07T13:41:21.631Z,3.60
2018-03-07T13:43:49.143Z,3.40
2018-03-07T13:46:16.675Z,3.40
2018-03-07T13:48:44.208Z,3.40
2018-03-07T13:51:11.731Z,3.40
2018-03-07T13:53:39.250Z,3.40
2018-03-07T13:56:06.848Z,3.40
2018-03-07T13:58:34.360Z,3.50
2018-03-07T14:01:01.911Z,3.40
2018-03-07T14:03:29.467Z,3.50
2018-03-07T14:05:56.999Z,3.40
2018-03-07T14:08:24.551Z,3.40
2018-03-07T14:10:52.059Z,3.30
2018-03-07T14:13:19.591Z,3.20
2018-03-07T14:15:47.679Z,3.20
2018-03-07T14:18:16.018Z,3.10
2018-03-07T14:20:43.600Z,3.10
2018-03-07T14:23:11.186Z,3.10
2018-03-07T14:25:38.732Z,3.10
2018-03-07T14:28:07.020Z,3.20
2018-03-07T14:30:35.351Z,3.10
2018-03-07T14:33:02.993Z,3.10
2018-03-07T14:35:30.539Z,3.10
2018-03-07T14:37:58.856Z,3.20
2018-03-07T14:40:26.435Z,3.20
2018-03-07T14:42:53.947Z,3.30
2018-03-07T14:45:21.538Z,3.30
2018-03-07T14:47:49.102Z,3.30
2018-03-07T14:50:16.703Z,3.10
2018-03-07T14:52:44.213Z,3.20
2018-03-07T14:55:11.728Z,3.10
2018-03-07T14:57:40.012Z,3.20
2018-03-07T15:00:09.188Z,3.30
2018-03-07T15:02:36.815Z,3.30
2018-03-07T15:05:04.328Z,3.40
2018-03-07T15:07:32.006Z,3.40
2018-03-07T15:09:59.520Z,3.50
2018-03-07T15:12:27.054Z,3.50
2018-03-07T15:14:54.599Z,3.40
2018-03-07T15:17:22.109Z,3.30
2018-03-07T15:19:49.623Z,3.20
2018-03-07T15:22:17.158Z,3.30
2018-03-07T15:24:44.751Z,3.20
2018-03-07T15:27:12.277Z,3.20
2018-03-07T15:29:39.829Z,3.20
2018-03-07T15:32:08.118Z,3.20
2018-03-07T15:34:36.387Z,3.20
2018-03-07T15:37:04.680Z,3.10
2018-03-07T15:39:32.197Z,3.10
2018-03-07T15:41:59.710Z,3.10
2018-03-07T15:44:27.250Z,3.20
2018-03-07T15:46:54.750Z,3.20
2018-03-07T15:49:22.265Z,3.10
2018-03-07T16:09:08.393Z,3.10
2018-03-07T16:11:35.906Z,3.10
2018-03-07T16:14:03.422Z,3.10
2018-03-07T16:16:30.922Z,3.00
2018-03-07T16:18:58.476Z,3.10
2018-03-07T16:21:26.005Z,2.90
2018-03-07T16:23:53.515Z,3.00
2018-03-07T16:26:21.945Z,3.10
2018-03-07T16:28:50.172Z,3.00
2018-03-07T16:31:17.696Z,3.10
2018-03-07T16:33:45.267Z,3.10
2018-03-07T16:36:12.810Z,3.10
2018-03-07T16:38:40.353Z,3.20
2018-03-07T16:41:07.883Z,3.20
2018-03-07T16:43:35.402Z,3.10
2018-03-07T16:46:03.016Z,3.10
2018-03-07T16:48:30.562Z,3.20
2018-03-07T16:50:58.855Z,3.20
2018-03-07T16:53:26.375Z,3.30
2018-03-07T16:55:54.023Z,3.20
2018-03-07T16:58:21.617Z,3.10
2018-03-07T17:00:49.921Z,3.10
2018-03-07T17:03:17.526Z,3.10
2018-03-07T17:05:45.051Z,3.10
2018-03-07T17:08:12.601Z,3.10
2018-03-07T17:10:40.222Z,3.10
2018-03-07T17:13:07.761Z,3.10
2018-03-07T17:15:35.327Z,3.10
2018-03-07T17:18:02.852Z,3.20
2018-03-07T17:20:30.388Z,3.20
2018-03-07T17:22:57.898Z,3.20
2018-03-07T17:25:25.439Z,3.20
2018-03-07T17:27:52.996Z,3.40
2018-03-07T17:30:20.515Z,3.40
2018-03-07T17:32:48.831Z,3.20
2018-03-07T17:35:16.347Z,3.20
2018-03-07T17:37:44.626Z,3.10
2018-03-07T17:40:12.957Z,3.20
2018-03-07T17:42:40.468Z,3.20
2018-03-07T17:45:08.042Z,3.10
2018-03-07T17:47:35.582Z,3.10
2018-03-07T17:50:03.181Z,3.10
2018-03-07T17:52:30.680Z,3.10
2018-03-07T17:54:58.239Z,3.00
2018-03-07T17:57:25.800Z,2.90
2018-03-07T17:59:53.335Z,3.10
2018-03-07T18:02:21.150Z,3.10
2018-03-07T18:04:48.694Z,3.10
2018-03-07T18:07:16.264Z,3.10
2018-03-07T18:09:43.798Z,3.10
2018-03-07T18:12:11.333Z,3.10
2018-03-07T18:14:38.900Z,3.20
2018-03-07T18:17:06.421Z,3.20
2018-03-07T18:19:38.049Z,3.10
2018-03-07T18:22:05.600Z,3.10
2018-03-07T18:24:33.098Z,3.10
2018-03-07T18:27:01.487Z,3.20
2018-03-07T18:29:29.028Z,3.20
2018-03-07T18:31:57.320Z,3.10
2018-03-07T18:34:24.852Z,3.10
2018-03-07T18:36:52.376Z,3.10
2018-03-07T18:39:19.909Z,3.10
2018-03-07T18:41:47.454Z,3.20
2018-03-07T18:44:15.004Z,3.30
2018-03-07T18:46:43.287Z,3.30
2018-03-07T18:49:11.567Z,3.30
2018-03-07T18:51:39.845Z,3.30
2018-03-07T18:54:08.071Z,3.30
2018-03-07T18:56:35.600Z,3.20
2018-03-07T18:59:03.136Z,3.20
2018-03-07T19:01:30.664Z,3.30
2018-03-07T19:03:58.268Z,3.30
2018-03-07T19:06:25.797Z,3.30
2018-03-07T19:08:53.313Z,3.30
2018-03-07T19:11:20.834Z,3.30
2018-03-07T19:13:49.133Z,3.30
2018-03-07T19:16:16.680Z,3.30
2018-03-07T19:18:44.962Z,3.40
2018-03-07T19:21:12.491Z,3.40
2018-03-07T19:23:40.012Z,3.30
2018-03-07T19:26:07.559Z,3.30
2018-03-07T19:28:35.212Z,3.30
2018-03-07T19:31:02.753Z,3.20
2018-03-07T19:33:30.288Z,3.30
2018-03-07T19:35:57.806Z,3.20
2018-03-07T19:38:25.352Z,3.20
2018-03-07T19:40:52.871Z,3.20
2018-03-07T19:43:21.205Z,3.20
2018-03-07T19:45:48.735Z,3.20
2018-03-07T19:48:16.279Z,3.10
2018-03-07T19:50:44.576Z,3.20
2018-03-07T19:53:12.116Z,3.10
2018-03-07T19:55:40.408Z,3.10
2018-03-07T19:58:07.961Z,3.00
2018-03-07T20:00:36.330Z,3.10
2018-03-07T20:03:03.861Z,3.10
2018-03-07T20:05:33.071Z,3.10
2018-03-07T20:08:00.976Z,3.10
2018-03-07T20:10:28.550Z,3.10
2018-03-07T20:12:56.099Z,3.10
2018-03-07T20:15:23.644Z,3.10
2018-03-07T20:17:51.957Z,3.20
2018-03-07T20:20:19.496Z,3.10
2018-03-07T20:22:48.854Z,3.20
2018-03-07T20:25:17.170Z,3.10
2018-03-07T20:27:44.704Z,3.10
2018-03-07T20:30:12.303Z,3.10
2018-03-07T20:32:39.837Z,3.10
2018-03-07T20:35:07.357Z,3.00
2018-03-07T20:37:34.914Z,3.10
2018-03-07T20:40:02.461Z,3.00
2018-03-07T20:42:30.074Z,3.00
2018-03-07T20:44:57.604Z,3.00
2018-03-07T20:47:25.135Z,2.90
2018-03-07T20:49:52.716Z,2.90
2018-03-07T20:52:20.237Z,2.90
2018-03-07T20:54:47.755Z,2.90
2018-03-07T20:57:15.297Z,3.00
2018-03-07T20:59:42.827Z,3.00
2018-03-07T21:02:10.345Z,3.00
2018-03-07T21:04:37.909Z,3.00
2018-03-07T21:07:06.343Z,3.00
2018-03-07T21:09:33.880Z,3.00
2018-03-07T21:12:01.395Z,3.00
2018-03-07T21:14:28.967Z,3.10
2018-03-07T21:16:57.283Z,3.00
2018-03-07T21:19:24.807Z,3.00
2018-03-07T21:21:52.344Z,3.00
2018-03-07T21:24:19.853Z,3.10
2018-03-07T21:26:47.363Z,3.00
2018-03-07T21:29:14.878Z,3.00
2018-03-07T21:31:42.416Z,2.90
2018-03-07T21:34:10.942Z,2.90
2018-03-07T21:36:38.612Z,2.90
2018-03-07T21:39:06.123Z,3.00
2018-03-07T21:41:33.656Z,3.10
2018-03-07T21:44:01.179Z,3.10
2018-03-07T21:46:28.730Z,3.00
2018-03-07T21:48:56.411Z,3.00
2018-03-07T21:51:23.952Z,3.00
2018-03-07T21:53:51.471Z,3.00
2018-03-07T21:56:19.752Z,3.10
2018-03-07T21:58:47.266Z,3.00
2018-03-07T22:01:14.786Z,3.00
2018-03-07T22:03:42.346Z,3.00
2018-03-07T22:06:09.882Z,3.10
2018-03-07T22:08:38.189Z,3.20
2018-03-07T22:11:05.716Z,3.20
2018-03-07T22:13:33.418Z,3.30
2018-03-07T22:16:00.945Z,3.30
2018-03-07T22:18:29.243Z,3.40
2018-03-07T22:20:56.755Z,3.40
2018-03-07T22:23:24.280Z,3.40
2018-03-07T22:25:51.824Z,3.30
2018-03-07T22:28:19.368Z,3.30
2018-03-07T22:30:46.942Z,3.30
2018-03-07T22:33:14.503Z,3.20
2018-03-07T22:35:42.021Z,3.20
2018-03-07T22:38:09.559Z,3.20
2018-03-07T22:40:37.098Z,3.20
2018-03-07T22:43:04.662Z,3.30
2018-03-07T22:45:32.192Z,3.30
2018-03-07T22:47:59.773Z,3.30
2018-03-07T22:50:27.348Z,3.40
2018-03-07T22:52:54.882Z,3.30
2018-03-07T22:55:22.468Z,3.30
2018-03-07T22:57:50.078Z,3.30
2018-03-07T23:00:30.208Z,3.30
2018-03-07T23:02:57.751Z,3.20
2018-03-07T23:05:25.264Z,3.20
2018-03-07T23:07:53.538Z,3.30
2018-03-07T23:10:21.835Z,3.50
2018-03-07T23:12:49.418Z,3.50
2018-03-07T23:15:17.004Z,3.50
2018-03-07T23:17:44.541Z,3.60
2018-03-07T23:20:12.069Z,3.50
2018-03-07T23:22:40.351Z,3.40
2018-03-07T23:25:07.898Z,3.40
2018-03-07T23:27:35.438Z,3.40
2018-03-07T23:30:02.959Z,3.30
2018-03-07T23:32:30.494Z,3.30
2018-03-07T23:34:58.028Z,3.30
2018-03-07T23:37:26.356Z,3.20
2018-03-07T23:39:53.913Z,3.20
2018-03-07T23:42:21.425Z,3.20
2018-03-07T23:44:49.724Z,3.20
2018-03-07T23:47:17.258Z,3.20
2018-03-07T23:49:44.806Z,3.20
2018-03-07T23:52:12.315Z,3.20
2018-03-07T23:54:39.857Z,3.30
2018-03-07T23:57:07.429Z,3.30
2018-03-07T23:59:34.955Z,3.20
